sensor_id;sensor_type;location;lat;lon;timestamp;P1;durP1;ratioP1;P2;durP2;ratioP2
80843;SDS011;70262;56.950;24.106;2023-06-26T00:00:56;2.95;;;1.20;;
80843;SDS011;70262;56.950;24.106;2023-06-26T00:03:21;2.33;;;1.20;;
80843;SDS011;70262;56.950;24.106;2023-06-26T00:05:48;2.85;;;1.60;;
80843;SDS011;70262;56.950;24.106;2023-06-26T00:08:14;2.55;;;1.10;;
80843;SDS011;70262;56.950;24.106;2023-06-26T00:10:39;2.30;;;0.88;;
80843;SDS011;70262;56.950;24.106;2023-06-26T00:13:04;2.53;;;1.25;;
80843;SDS011;70262;56.950;24.106;2023-06-26T00:15:30;1.05;;;0.90;;
80843;SDS011;70262;56.950;24.106;2023-06-26T00:17:56;2.28;;;1.30;;
80843;SDS011;70262;56.950;24.106;2023-06-26T00:20:23;2.10;;;1.27;;
80843;SDS011;70262;56.950;24.106;2023-06-26T00:22:50;2.83;;;1.45;;
80843;SDS011;70262;56.950;24.106;2023-06-26T00:25:16;2.00;;;1.20;;
80843;SDS011;70262;56.950;24.106;2023-06-26T00:27:41;2.40;;;1.30;;
80843;SDS011;70262;56.950;24.106;2023-06-26T00:30:07;2.90;;;1.58;;
80843;SDS011;70262;56.950;24.106;2023-06-26T00:32:33;2.55;;;1.27;;
80843;SDS011;70262;56.950;24.106;2023-06-26T00:34:59;1.85;;;1.30;;
80843;SDS011;70262;56.950;24.106;2023-06-26T00:37:24;1.92;;;1.02;;
80843;SDS011;70262;56.950;24.106;2023-06-26T00:39:49;2.72;;;1.38;;
80843;SDS011;70262;56.950;24.106;2023-06-26T00:42:15;2.63;;;1.27;;
80843;SDS011;70262;56.950;24.106;2023-06-26T00:44:40;1.63;;;0.98;;
80843;SDS011;70262;56.950;24.106;2023-06-26T00:47:06;2.03;;;1.42;;
80843;SDS011;70262;56.950;24.106;2023-06-26T00:49:31;2.20;;;1.10;;
80843;SDS011;70262;56.950;24.106;2023-06-26T00:51:57;2.72;;;1.38;;
80843;SDS011;70262;56.950;24.106;2023-06-26T00:54:22;2.08;;;1.10;;
80843;SDS011;70262;56.950;24.106;2023-06-26T00:56:48;1.58;;;1.08;;
80843;SDS011;70262;56.950;24.106;2023-06-26T00:59:19;2.10;;;1.10;;
80843;SDS011;70262;56.950;24.106;2023-06-26T01:01:46;1.27;;;0.95;;
80843;SDS011;70262;56.950;24.106;2023-06-26T01:04:12;1.48;;;0.88;;
80843;SDS011;70262;56.950;24.106;2023-06-26T01:06:42;1.48;;;1.00;;
80843;SDS011;70262;56.950;24.106;2023-06-26T01:09:17;1.60;;;1.02;;
80843;SDS011;70262;56.950;24.106;2023-06-26T01:11:43;1.73;;;0.98;;
80843;SDS011;70262;56.950;24.106;2023-06-26T01:14:09;1.73;;;0.95;;
80843;SDS011;70262;56.950;24.106;2023-06-26T01:16:35;1.27;;;0.80;;
80843;SDS011;70262;56.950;24.106;2023-06-26T01:19:01;1.63;;;1.30;;
80843;SDS011;70262;56.950;24.106;2023-06-26T01:21:27;1.33;;;0.82;;
80843;SDS011;70262;56.950;24.106;2023-06-26T01:26:32;1.30;;;1.10;;
80843;SDS011;70262;56.950;24.106;2023-06-26T01:29:04;0.85;;;0.82;;
80843;SDS011;70262;56.950;24.106;2023-06-26T01:31:31;1.67;;;1.10;;
80843;SDS011;70262;56.950;24.106;2023-06-26T01:33:58;1.55;;;1.10;;
80843;SDS011;70262;56.950;24.106;2023-06-26T01:36:24;1.90;;;1.30;;
80843;SDS011;70262;56.950;24.106;2023-06-26T01:38:50;1.17;;;1.05;;
80843;SDS011;70262;56.950;24.106;2023-06-26T01:41:16;3.08;;;1.38;;
80843;SDS011;70262;56.950;24.106;2023-06-26T01:52:21;1.35;;;1.02;;
80843;SDS011;70262;56.950;24.106;2023-06-26T01:57:19;2.00;;;1.25;;
80843;SDS011;70262;56.950;24.106;2023-06-26T01:59:51;2.85;;;1.40;;
80843;SDS011;70262;56.950;24.106;2023-06-26T02:02:17;2.05;;;1.30;;
80843;SDS011;70262;56.950;24.106;2023-06-26T02:04:43;3.08;;;1.60;;
80843;SDS011;70262;56.950;24.106;2023-06-26T02:07:08;1.90;;;1.25;;
80843;SDS011;70262;56.950;24.106;2023-06-26T02:09:34;2.25;;;1.73;;
80843;SDS011;70262;56.950;24.106;2023-06-26T02:12:00;2.10;;;1.60;;
80843;SDS011;70262;56.950;24.106;2023-06-26T02:14:25;1.48;;;1.23;;
80843;SDS011;70262;56.950;24.106;2023-06-26T02:16:50;2.25;;;1.30;;
80843;SDS011;70262;56.950;24.106;2023-06-26T02:19:16;1.60;;;1.30;;
80843;SDS011;70262;56.950;24.106;2023-06-26T02:21:49;1.88;;;1.45;;
80843;SDS011;70262;56.950;24.106;2023-06-26T02:24:14;2.70;;;1.77;;
80843;SDS011;70262;56.950;24.106;2023-06-26T02:26:40;2.03;;;1.70;;
80843;SDS011;70262;56.950;24.106;2023-06-26T02:29:05;2.40;;;1.83;;
80843;SDS011;70262;56.950;24.106;2023-06-26T02:31:31;1.95;;;1.35;;
80843;SDS011;70262;56.950;24.106;2023-06-26T02:33:56;2.33;;;1.90;;
80843;SDS011;70262;56.950;24.106;2023-06-26T02:36:23;2.38;;;1.80;;
80843;SDS011;70262;56.950;24.106;2023-06-26T02:38:49;2.05;;;1.50;;
80843;SDS011;70262;56.950;24.106;2023-06-26T02:41:14;2.75;;;1.90;;
80843;SDS011;70262;56.950;24.106;2023-06-26T02:43:39;2.05;;;1.77;;
80843;SDS011;70262;56.950;24.106;2023-06-26T02:46:05;1.77;;;1.52;;
80843;SDS011;70262;56.950;24.106;2023-06-26T02:48:30;3.55;;;1.60;;
80843;SDS011;70262;56.950;24.106;2023-06-26T02:50:56;2.72;;;2.05;;
80843;SDS011;70262;56.950;24.106;2023-06-26T02:53:21;3.38;;;1.90;;
80843;SDS011;70262;56.950;24.106;2023-06-26T02:55:47;2.80;;;2.00;;
80843;SDS011;70262;56.950;24.106;2023-06-26T02:58:12;2.92;;;2.03;;
80843;SDS011;70262;56.950;24.106;2023-06-26T03:00:38;2.50;;;1.75;;
80843;SDS011;70262;56.950;24.106;2023-06-26T03:03:06;3.58;;;2.20;;
80843;SDS011;70262;56.950;24.106;2023-06-26T03:05:32;3.20;;;1.98;;
80843;SDS011;70262;56.950;24.106;2023-06-26T03:07:58;2.83;;;1.77;;
80843;SDS011;70262;56.950;24.106;2023-06-26T03:10:23;3.42;;;2.13;;
80843;SDS011;70262;56.950;24.106;2023-06-26T03:12:49;4.20;;;2.10;;
80843;SDS011;70262;56.950;24.106;2023-06-26T03:15:14;2.70;;;1.92;;
80843;SDS011;70262;56.950;24.106;2023-06-26T03:17:39;3.22;;;2.17;;
80843;SDS011;70262;56.950;24.106;2023-06-26T03:20:05;2.50;;;2.00;;
80843;SDS011;70262;56.950;24.106;2023-06-26T03:22:32;2.80;;;2.00;;
80843;SDS011;70262;56.950;24.106;2023-06-26T03:24:58;2.55;;;1.92;;
80843;SDS011;70262;56.950;24.106;2023-06-26T03:27:24;2.40;;;2.15;;
80843;SDS011;70262;56.950;24.106;2023-06-26T03:29:51;3.80;;;2.00;;
80843;SDS011;70262;56.950;24.106;2023-06-26T03:32:17;4.43;;;2.38;;
80843;SDS011;70262;56.950;24.106;2023-06-26T03:34:42;2.80;;;2.17;;
80843;SDS011;70262;56.950;24.106;2023-06-26T03:37:08;4.60;;;2.15;;
80843;SDS011;70262;56.950;24.106;2023-06-26T03:39:33;3.40;;;2.17;;
80843;SDS011;70262;56.950;24.106;2023-06-26T03:41:59;3.20;;;2.53;;
80843;SDS011;70262;56.950;24.106;2023-06-26T03:44:26;2.95;;;2.10;;
80843;SDS011;70262;56.950;24.106;2023-06-26T03:46:51;4.22;;;2.28;;
80843;SDS011;70262;56.950;24.106;2023-06-26T03:49:17;3.40;;;2.30;;
80843;SDS011;70262;56.950;24.106;2023-06-26T03:51:44;6.97;;;2.53;;
80843;SDS011;70262;56.950;24.106;2023-06-26T03:54:12;2.75;;;1.90;;
80843;SDS011;70262;56.950;24.106;2023-06-26T03:56:38;4.05;;;3.65;;
80843;SDS011;70262;56.950;24.106;2023-06-26T03:59:03;2.70;;;2.17;;
80843;SDS011;70262;56.950;24.106;2023-06-26T04:01:29;4.63;;;2.70;;
80843;SDS011;70262;56.950;24.106;2023-06-26T04:03:54;3.22;;;2.35;;
80843;SDS011;70262;56.950;24.106;2023-06-26T04:06:20;3.28;;;2.60;;
80843;SDS011;70262;56.950;24.106;2023-06-26T04:08:45;3.30;;;2.38;;
80843;SDS011;70262;56.950;24.106;2023-06-26T04:11:11;3.60;;;2.80;;
80843;SDS011;70262;56.950;24.106;2023-06-26T04:13:36;4.25;;;2.60;;
80843;SDS011;70262;56.950;24.106;2023-06-26T04:16:02;2.85;;;2.55;;
80843;SDS011;70262;56.950;24.106;2023-06-26T04:18:27;2.85;;;2.53;;
80843;SDS011;70262;56.950;24.106;2023-06-26T04:21:09;4.95;;;2.83;;
80843;SDS011;70262;56.950;24.106;2023-06-26T04:23:36;3.17;;;2.47;;
80843;SDS011;70262;56.950;24.106;2023-06-26T04:26:02;3.22;;;2.60;;
80843;SDS011;70262;56.950;24.106;2023-06-26T04:28:30;4.50;;;2.90;;
80843;SDS011;70262;56.950;24.106;2023-06-26T04:30:59;4.13;;;2.92;;
80843;SDS011;70262;56.950;24.106;2023-06-26T04:33:25;3.88;;;2.35;;
80843;SDS011;70262;56.950;24.106;2023-06-26T04:35:51;3.22;;;2.60;;
80843;SDS011;70262;56.950;24.106;2023-06-26T04:38:20;3.05;;;2.45;;
80843;SDS011;70262;56.950;24.106;2023-06-26T04:40:46;3.15;;;2.38;;
80843;SDS011;70262;56.950;24.106;2023-06-26T04:43:12;2.83;;;2.42;;
80843;SDS011;70262;56.950;24.106;2023-06-26T04:45:38;5.65;;;5.00;;
80843;SDS011;70262;56.950;24.106;2023-06-26T04:48:03;4.47;;;3.20;;
80843;SDS011;70262;56.950;24.106;2023-06-26T04:50:30;3.20;;;2.60;;
80843;SDS011;70262;56.950;24.106;2023-06-26T04:52:58;3.50;;;2.92;;
80843;SDS011;70262;56.950;24.106;2023-06-26T04:55:24;4.65;;;4.18;;
80843;SDS011;70262;56.950;24.106;2023-06-26T04:57:50;7.35;;;4.50;;
80843;SDS011;70262;56.950;24.106;2023-06-26T05:00:16;9.07;;;8.18;;
80843;SDS011;70262;56.950;24.106;2023-06-26T05:02:41;9.80;;;8.82;;
80843;SDS011;70262;56.950;24.106;2023-06-26T05:05:07;10.85;;;9.75;;
80843;SDS011;70262;56.950;24.106;2023-06-26T05:07:33;9.88;;;8.98;;
80843;SDS011;70262;56.950;24.106;2023-06-26T05:09:58;9.02;;;8.02;;
80843;SDS011;70262;56.950;24.106;2023-06-26T05:12:24;8.13;;;6.53;;
80843;SDS011;70262;56.950;24.106;2023-06-26T05:14:49;8.13;;;7.40;;
80843;SDS011;70262;56.950;24.106;2023-06-26T05:17:14;8.07;;;6.00;;
80843;SDS011;70262;56.950;24.106;2023-06-26T05:19:40;6.13;;;5.32;;
80843;SDS011;70262;56.950;24.106;2023-06-26T05:22:05;8.68;;;7.30;;
80843;SDS011;70262;56.950;24.106;2023-06-26T05:24:37;11.98;;;9.18;;
80843;SDS011;70262;56.950;24.106;2023-06-26T05:27:03;8.50;;;7.30;;
80843;SDS011;70262;56.950;24.106;2023-06-26T05:29:31;6.95;;;6.35;;
80843;SDS011;70262;56.950;24.106;2023-06-26T05:31:56;6.00;;;5.40;;
80843;SDS011;70262;56.950;24.106;2023-06-26T05:34:23;6.05;;;4.25;;
80843;SDS011;70262;56.950;24.106;2023-06-26T05:36:50;16.88;;;15.35;;
80843;SDS011;70262;56.950;24.106;2023-06-26T05:39:16;19.63;;;17.67;;
80843;SDS011;70262;56.950;24.106;2023-06-26T05:41:44;12.95;;;11.57;;
80843;SDS011;70262;56.950;24.106;2023-06-26T05:44:10;8.77;;;7.35;;
80843;SDS011;70262;56.950;24.106;2023-06-26T05:46:35;8.90;;;7.00;;
80843;SDS011;70262;56.950;24.106;2023-06-26T05:49:01;6.70;;;6.00;;
80843;SDS011;70262;56.950;24.106;2023-06-26T05:51:27;7.47;;;5.22;;
80843;SDS011;70262;56.950;24.106;2023-06-26T05:53:53;6.13;;;5.10;;
80843;SDS011;70262;56.950;24.106;2023-06-26T05:56:19;7.57;;;5.90;;
80843;SDS011;70262;56.950;24.106;2023-06-26T05:58:45;4.97;;;4.20;;
80843;SDS011;70262;56.950;24.106;2023-06-26T06:01:10;5.93;;;5.28;;
80843;SDS011;70262;56.950;24.106;2023-06-26T06:03:38;6.82;;;4.90;;
80843;SDS011;70262;56.950;24.106;2023-06-26T06:06:04;5.60;;;3.70;;
80843;SDS011;70262;56.950;24.106;2023-06-26T06:08:29;6.88;;;4.40;;
80843;SDS011;70262;56.950;24.106;2023-06-26T06:10:55;3.95;;;3.55;;
80843;SDS011;70262;56.950;24.106;2023-06-26T06:13:20;2.92;;;2.30;;
80843;SDS011;70262;56.950;24.106;2023-06-26T06:15:46;3.03;;;2.17;;
80843;SDS011;70262;56.950;24.106;2023-06-26T06:18:12;2.42;;;2.00;;
80843;SDS011;70262;56.950;24.106;2023-06-26T06:20:38;2.25;;;1.90;;
80843;SDS011;70262;56.950;24.106;2023-06-26T06:23:07;5.18;;;4.68;;
80843;SDS011;70262;56.950;24.106;2023-06-26T06:25:32;3.85;;;2.17;;
80843;SDS011;70262;56.950;24.106;2023-06-26T06:27:59;2.08;;;1.88;;
80843;SDS011;70262;56.950;24.106;2023-06-26T06:30:24;2.80;;;1.85;;
80843;SDS011;70262;56.950;24.106;2023-06-26T06:32:50;2.83;;;1.85;;
80843;SDS011;70262;56.950;24.106;2023-06-26T06:35:20;4.05;;;1.70;;
80843;SDS011;70262;56.950;24.106;2023-06-26T06:37:46;2.40;;;1.70;;
80843;SDS011;70262;56.950;24.106;2023-06-26T06:40:12;4.03;;;2.30;;
80843;SDS011;70262;56.950;24.106;2023-06-26T06:42:37;2.80;;;2.15;;
80843;SDS011;70262;56.950;24.106;2023-06-26T06:45:06;2.45;;;1.85;;
80843;SDS011;70262;56.950;24.106;2023-06-26T06:47:32;3.03;;;2.30;;
80843;SDS011;70262;56.950;24.106;2023-06-26T06:49:58;3.38;;;2.00;;
80843;SDS011;70262;56.950;24.106;2023-06-26T06:52:39;3.35;;;2.40;;
80843;SDS011;70262;56.950;24.106;2023-06-26T06:55:06;3.80;;;2.00;;
80843;SDS011;70262;56.950;24.106;2023-06-26T06:57:34;4.13;;;1.92;;
80843;SDS011;70262;56.950;24.106;2023-06-26T07:02:33;3.53;;;1.90;;
80843;SDS011;70262;56.950;24.106;2023-06-26T07:05:02;3.05;;;1.90;;
80843;SDS011;70262;56.950;24.106;2023-06-26T07:07:29;6.00;;;2.10;;
80843;SDS011;70262;56.950;24.106;2023-06-26T07:10:03;4.00;;;2.00;;
80843;SDS011;70262;56.950;24.106;2023-06-26T07:12:34;2.65;;;1.63;;
80843;SDS011;70262;56.950;24.106;2023-06-26T07:15:01;3.92;;;2.08;;
80843;SDS011;70262;56.950;24.106;2023-06-26T07:17:27;2.20;;;1.70;;
80843;SDS011;70262;56.950;24.106;2023-06-26T07:19:53;2.65;;;1.80;;
80843;SDS011;70262;56.950;24.106;2023-06-26T07:22:19;2.53;;;1.60;;
80843;SDS011;70262;56.950;24.106;2023-06-26T07:24:46;3.60;;;1.58;;
80843;SDS011;70262;56.950;24.106;2023-06-26T07:27:12;5.15;;;2.05;;
80843;SDS011;70262;56.950;24.106;2023-06-26T07:29:40;4.38;;;2.22;;
80843;SDS011;70262;56.950;24.106;2023-06-26T07:32:05;1.73;;;1.58;;
80843;SDS011;70262;56.950;24.106;2023-06-26T07:34:31;3.97;;;1.70;;
80843;SDS011;70262;56.950;24.106;2023-06-26T07:36:56;5.53;;;2.03;;
80843;SDS011;70262;56.950;24.106;2023-06-26T07:39:22;4.32;;;2.28;;
80843;SDS011;70262;56.950;24.106;2023-06-26T07:41:49;2.92;;;1.75;;
80843;SDS011;70262;56.950;24.106;2023-06-26T07:44:14;5.32;;;1.77;;
80843;SDS011;70262;56.950;24.106;2023-06-26T07:46:40;5.25;;;1.83;;
80843;SDS011;70262;56.950;24.106;2023-06-26T07:49:05;5.95;;;1.73;;
80843;SDS011;70262;56.950;24.106;2023-06-26T07:51:30;4.43;;;1.80;;
80843;SDS011;70262;56.950;24.106;2023-06-26T07:53:56;6.13;;;2.38;;
80843;SDS011;70262;56.950;24.106;2023-06-26T07:56:21;5.53;;;2.63;;
80843;SDS011;70262;56.950;24.106;2023-06-26T07:58:47;2.35;;;1.67;;
80843;SDS011;70262;56.950;24.106;2023-06-26T08:01:12;5.28;;;1.90;;
80843;SDS011;70262;56.950;24.106;2023-06-26T08:03:38;4.80;;;2.10;;
80843;SDS011;70262;56.950;24.106;2023-06-26T08:06:03;4.80;;;1.92;;
80843;SDS011;70262;56.950;24.106;2023-06-26T08:08:29;3.85;;;1.80;;
80843;SDS011;70262;56.950;24.106;2023-06-26T08:10:54;2.47;;;1.88;;
80843;SDS011;70262;56.950;24.106;2023-06-26T08:13:20;4.20;;;1.90;;
80843;SDS011;70262;56.950;24.106;2023-06-26T08:15:48;3.28;;;2.05;;
80843;SDS011;70262;56.950;24.106;2023-06-26T08:18:14;4.80;;;1.92;;
80843;SDS011;70262;56.950;24.106;2023-06-26T08:20:39;3.40;;;2.10;;
80843;SDS011;70262;56.950;24.106;2023-06-26T08:23:05;3.13;;;2.15;;
80843;SDS011;70262;56.950;24.106;2023-06-26T08:25:30;2.95;;;1.88;;
80843;SDS011;70262;56.950;24.106;2023-06-26T08:27:56;3.70;;;2.03;;
80843;SDS011;70262;56.950;24.106;2023-06-26T08:30:21;2.63;;;1.90;;
80843;SDS011;70262;56.950;24.106;2023-06-26T08:32:50;3.75;;;2.00;;
80843;SDS011;70262;56.950;24.106;2023-06-26T08:35:16;3.05;;;2.45;;
80843;SDS011;70262;56.950;24.106;2023-06-26T08:37:42;3.17;;;2.50;;
80843;SDS011;70262;56.950;24.106;2023-06-26T08:40:07;5.57;;;4.82;;
80843;SDS011;70262;56.950;24.106;2023-06-26T08:42:33;6.60;;;4.38;;
80843;SDS011;70262;56.950;24.106;2023-06-26T08:45:00;4.40;;;4.00;;
80843;SDS011;70262;56.950;24.106;2023-06-26T08:47:25;6.65;;;4.95;;
80843;SDS011;70262;56.950;24.106;2023-06-26T08:49:56;8.32;;;7.38;;
80843;SDS011;70262;56.950;24.106;2023-06-26T08:52:37;10.23;;;7.47;;
80843;SDS011;70262;56.950;24.106;2023-06-26T08:55:09;7.05;;;5.25;;
80843;SDS011;70262;56.950;24.106;2023-06-26T08:57:36;6.68;;;4.47;;
80843;SDS011;70262;56.950;24.106;2023-06-26T09:00:02;4.60;;;3.17;;
80843;SDS011;70262;56.950;24.106;2023-06-26T09:02:29;5.45;;;2.80;;
80843;SDS011;70262;56.950;24.106;2023-06-26T09:04:54;4.35;;;3.83;;
80843;SDS011;70262;56.950;24.106;2023-06-26T09:07:23;3.80;;;2.67;;
80843;SDS011;70262;56.950;24.106;2023-06-26T09:09:48;4.78;;;2.85;;
80843;SDS011;70262;56.950;24.106;2023-06-26T09:12:14;4.15;;;2.40;;
80843;SDS011;70262;56.950;24.106;2023-06-26T09:14:39;2.92;;;2.33;;
80843;SDS011;70262;56.950;24.106;2023-06-26T09:17:06;5.75;;;4.47;;
80843;SDS011;70262;56.950;24.106;2023-06-26T09:19:32;10.50;;;9.07;;
80843;SDS011;70262;56.950;24.106;2023-06-26T09:22:00;6.25;;;5.68;;
80843;SDS011;70262;56.950;24.106;2023-06-26T09:26:51;6.15;;;2.65;;
80843;SDS011;70262;56.950;24.106;2023-06-26T09:29:17;4.38;;;2.00;;
80843;SDS011;70262;56.950;24.106;2023-06-26T09:31:43;4.50;;;2.28;;
80843;SDS011;70262;56.950;24.106;2023-06-26T09:34:09;3.45;;;1.95;;
80843;SDS011;70262;56.950;24.106;2023-06-26T09:36:35;3.40;;;2.22;;
80843;SDS011;70262;56.950;24.106;2023-06-26T09:39:02;4.70;;;2.42;;
80843;SDS011;70262;56.950;24.106;2023-06-26T09:41:30;5.22;;;2.85;;
80843;SDS011;70262;56.950;24.106;2023-06-26T09:43:57;4.05;;;2.45;;
80843;SDS011;70262;56.950;24.106;2023-06-26T09:46:29;4.45;;;2.10;;
80843;SDS011;70262;56.950;24.106;2023-06-26T09:49:05;3.30;;;2.85;;
80843;SDS011;70262;56.950;24.106;2023-06-26T09:51:34;6.15;;;2.70;;
80843;SDS011;70262;56.950;24.106;2023-06-26T09:54:02;3.35;;;2.80;;
80843;SDS011;70262;56.950;24.106;2023-06-26T09:56:28;3.92;;;2.70;;
80843;SDS011;70262;56.950;24.106;2023-06-26T09:58:59;3.60;;;2.70;;
80843;SDS011;70262;56.950;24.106;2023-06-26T10:01:26;4.80;;;2.80;;
80843;SDS011;70262;56.950;24.106;2023-06-26T10:03:53;4.20;;;3.50;;
80843;SDS011;70262;56.950;24.106;2023-06-26T10:06:19;4.15;;;3.75;;
80843;SDS011;70262;56.950;24.106;2023-06-26T10:08:52;4.05;;;2.85;;
80843;SDS011;70262;56.950;24.106;2023-06-26T10:11:19;6.90;;;4.63;;
80843;SDS011;70262;56.950;24.106;2023-06-26T10:13:47;5.07;;;4.47;;
80843;SDS011;70262;56.950;24.106;2023-06-26T10:16:16;5.30;;;3.35;;
80843;SDS011;70262;56.950;24.106;2023-06-26T10:18:44;3.55;;;2.65;;
80843;SDS011;70262;56.950;24.106;2023-06-26T10:21:09;2.45;;;2.13;;
80843;SDS011;70262;56.950;24.106;2023-06-26T10:23:36;3.53;;;2.25;;
80843;SDS011;70262;56.950;24.106;2023-06-26T10:26:05;4.05;;;2.53;;
80843;SDS011;70262;56.950;24.106;2023-06-26T10:28:31;3.53;;;2.50;;
80843;SDS011;70262;56.950;24.106;2023-06-26T10:31:00;2.85;;;2.20;;
80843;SDS011;70262;56.950;24.106;2023-06-26T10:33:28;4.18;;;2.50;;
80843;SDS011;70262;56.950;24.106;2023-06-26T10:35:54;3.72;;;2.22;;
80843;SDS011;70262;56.950;24.106;2023-06-26T10:38:51;3.88;;;2.72;;
80843;SDS011;70262;56.950;24.106;2023-06-26T10:41:24;3.10;;;2.50;;
80843;SDS011;70262;56.950;24.106;2023-06-26T10:43:51;3.35;;;2.75;;
80843;SDS011;70262;56.950;24.106;2023-06-26T10:46:32;3.38;;;2.42;;
80843;SDS011;70262;56.950;24.106;2023-06-26T10:48:58;6.15;;;2.00;;
80843;SDS011;70262;56.950;24.106;2023-06-26T10:51:25;3.78;;;2.33;;
80843;SDS011;70262;56.950;24.106;2023-06-26T10:53:56;4.95;;;2.97;;
80843;SDS011;70262;56.950;24.106;2023-06-26T10:56:40;2.50;;;2.00;;
80843;SDS011;70262;56.950;24.106;2023-06-26T10:59:14;3.05;;;1.88;;
80843;SDS011;70262;56.950;24.106;2023-06-26T11:01:57;5.38;;;2.45;;
80843;SDS011;70262;56.950;24.106;2023-06-26T11:04:45;5.30;;;2.25;;
80843;SDS011;70262;56.950;24.106;2023-06-26T11:09:17;3.78;;;2.22;;
80843;SDS011;70262;56.950;24.106;2023-06-26T11:14:25;3.75;;;2.22;;
80843;SDS011;70262;56.950;24.106;2023-06-26T11:16:57;6.47;;;2.30;;
80843;SDS011;70262;56.950;24.106;2023-06-26T11:19:25;3.15;;;2.20;;
80843;SDS011;70262;56.950;24.106;2023-06-26T11:21:51;3.70;;;2.35;;
80843;SDS011;70262;56.950;24.106;2023-06-26T11:24:17;3.47;;;1.92;;
80843;SDS011;70262;56.950;24.106;2023-06-26T11:26:44;3.25;;;2.40;;
80843;SDS011;70262;56.950;24.106;2023-06-26T11:29:11;2.88;;;2.42;;
80843;SDS011;70262;56.950;24.106;2023-06-26T11:31:38;2.72;;;2.00;;
80843;SDS011;70262;56.950;24.106;2023-06-26T11:34:13;2.72;;;1.90;;
80843;SDS011;70262;56.950;24.106;2023-06-26T11:36:43;2.47;;;1.88;;
80843;SDS011;70262;56.950;24.106;2023-06-26T11:39:11;2.35;;;1.90;;
80843;SDS011;70262;56.950;24.106;2023-06-26T11:41:38;3.28;;;1.75;;
80843;SDS011;70262;56.950;24.106;2023-06-26T11:46:32;2.08;;;1.88;;
80843;SDS011;70262;56.950;24.106;2023-06-26T11:48:59;4.05;;;2.28;;
80843;SDS011;70262;56.950;24.106;2023-06-26T11:51:26;2.70;;;1.90;;
80843;SDS011;70262;56.950;24.106;2023-06-26T11:53:52;2.58;;;2.17;;
80843;SDS011;70262;56.950;24.106;2023-06-26T11:56:18;2.60;;;2.03;;
80843;SDS011;70262;56.950;24.106;2023-06-26T12:01:38;3.10;;;2.65;;
80843;SDS011;70262;56.950;24.106;2023-06-26T12:04:05;3.85;;;2.08;;
80843;SDS011;70262;56.950;24.106;2023-06-26T12:06:33;2.80;;;2.22;;
80843;SDS011;70262;56.950;24.106;2023-06-26T12:09:00;3.15;;;2.50;;
80843;SDS011;70262;56.950;24.106;2023-06-26T12:11:28;4.63;;;2.75;;
80843;SDS011;70262;56.950;24.106;2023-06-26T12:13:55;3.92;;;2.72;;
80843;SDS011;70262;56.950;24.106;2023-06-26T12:16:21;3.75;;;2.10;;
80843;SDS011;70262;56.950;24.106;2023-06-26T12:18:47;3.42;;;2.10;;
80843;SDS011;70262;56.950;24.106;2023-06-26T12:24:22;3.88;;;2.22;;
80843;SDS011;70262;56.950;24.106;2023-06-26T12:26:50;3.00;;;2.03;;
80843;SDS011;70262;56.950;24.106;2023-06-26T12:29:19;5.07;;;2.33;;
80843;SDS011;70262;56.950;24.106;2023-06-26T12:31:46;3.90;;;2.20;;
80843;SDS011;70262;56.950;24.106;2023-06-26T12:34:20;3.65;;;1.90;;
80843;SDS011;70262;56.950;24.106;2023-06-26T12:36:50;3.45;;;1.98;;
80843;SDS011;70262;56.950;24.106;2023-06-26T12:39:17;4.15;;;2.40;;
80843;SDS011;70262;56.950;24.106;2023-06-26T12:41:51;4.93;;;2.30;;
80843;SDS011;70262;56.950;24.106;2023-06-26T12:44:29;3.33;;;2.13;;
80843;SDS011;70262;56.950;24.106;2023-06-26T12:46:59;4.10;;;2.00;;
80843;SDS011;70262;56.950;24.106;2023-06-26T12:49:29;3.10;;;1.90;;
80843;SDS011;70262;56.950;24.106;2023-06-26T12:52:04;3.55;;;1.73;;
80843;SDS011;70262;56.950;24.106;2023-06-26T12:54:30;4.57;;;2.00;;
80843;SDS011;70262;56.950;24.106;2023-06-26T12:56:57;1.92;;;1.73;;
80843;SDS011;70262;56.950;24.106;2023-06-26T12:59:23;4.18;;;1.90;;
80843;SDS011;70262;56.950;24.106;2023-06-26T13:01:49;2.80;;;1.83;;
80843;SDS011;70262;56.950;24.106;2023-06-26T13:04:14;2.03;;;1.73;;
80843;SDS011;70262;56.950;24.106;2023-06-26T13:06:41;2.78;;;1.85;;
80843;SDS011;70262;56.950;24.106;2023-06-26T13:09:06;3.60;;;1.83;;
80843;SDS011;70262;56.950;24.106;2023-06-26T13:11:32;2.67;;;2.22;;
80843;SDS011;70262;56.950;24.106;2023-06-26T13:13:58;4.20;;;2.10;;
80843;SDS011;70262;56.950;24.106;2023-06-26T13:16:24;2.40;;;1.70;;
80843;SDS011;70262;56.950;24.106;2023-06-26T13:18:49;3.25;;;1.90;;
80843;SDS011;70262;56.950;24.106;2023-06-26T13:21:15;4.65;;;2.55;;
80843;SDS011;70262;56.950;24.106;2023-06-26T13:23:42;2.65;;;1.80;;
80843;SDS011;70262;56.950;24.106;2023-06-26T13:26:07;2.38;;;1.75;;
80843;SDS011;70262;56.950;24.106;2023-06-26T13:28:33;2.58;;;1.90;;
80843;SDS011;70262;56.950;24.106;2023-06-26T13:30:58;2.30;;;2.00;;
80843;SDS011;70262;56.950;24.106;2023-06-26T13:33:23;2.95;;;2.00;;
80843;SDS011;70262;56.950;24.106;2023-06-26T13:35:51;4.00;;;2.38;;
80843;SDS011;70262;56.950;24.106;2023-06-26T13:38:18;2.22;;;1.95;;
80843;SDS011;70262;56.950;24.106;2023-06-26T13:40:49;4.20;;;3.60;;
80843;SDS011;70262;56.950;24.106;2023-06-26T13:43:14;3.08;;;2.05;;
80843;SDS011;70262;56.950;24.106;2023-06-26T13:45:40;2.53;;;1.88;;
80843;SDS011;70262;56.950;24.106;2023-06-26T13:48:05;3.50;;;2.03;;
80843;SDS011;70262;56.950;24.106;2023-06-26T13:50:51;3.03;;;1.95;;
80843;SDS011;70262;56.950;24.106;2023-06-26T13:53:38;4.03;;;2.33;;
80843;SDS011;70262;56.950;24.106;2023-06-26T13:56:03;2.72;;;2.25;;
80843;SDS011;70262;56.950;24.106;2023-06-26T13:58:29;3.97;;;1.98;;
80843;SDS011;70262;56.950;24.106;2023-06-26T14:00:57;3.22;;;2.50;;
80843;SDS011;70262;56.950;24.106;2023-06-26T14:03:23;9.65;;;2.47;;
80843;SDS011;70262;56.950;24.106;2023-06-26T14:05:48;5.85;;;2.45;;
80843;SDS011;70262;56.950;24.106;2023-06-26T14:08:14;3.63;;;2.40;;
80843;SDS011;70262;56.950;24.106;2023-06-26T14:10:42;4.13;;;2.30;;
80843;SDS011;70262;56.950;24.106;2023-06-26T14:15:33;3.05;;;2.15;;
80843;SDS011;70262;56.950;24.106;2023-06-26T14:18:00;3.55;;;2.03;;
80843;SDS011;70262;56.950;24.106;2023-06-26T14:20:28;3.17;;;2.10;;
80843;SDS011;70262;56.950;24.106;2023-06-26T14:22:55;4.05;;;2.35;;
80843;SDS011;70262;56.950;24.106;2023-06-26T14:25:20;2.85;;;2.05;;
80843;SDS011;70262;56.950;24.106;2023-06-26T14:27:46;2.47;;;2.10;;
80843;SDS011;70262;56.950;24.106;2023-06-26T14:30:11;2.85;;;2.10;;
80843;SDS011;70262;56.950;24.106;2023-06-26T14:32:37;5.25;;;2.58;;
80843;SDS011;70262;56.950;24.106;2023-06-26T14:35:02;2.47;;;2.08;;
80843;SDS011;70262;56.950;24.106;2023-06-26T14:37:28;4.22;;;2.10;;
80843;SDS011;70262;56.950;24.106;2023-06-26T14:39:54;4.88;;;2.80;;
80843;SDS011;70262;56.950;24.106;2023-06-26T14:42:20;3.97;;;2.83;;
80843;SDS011;70262;56.950;24.106;2023-06-26T14:44:48;3.67;;;2.47;;
80843;SDS011;70262;56.950;24.106;2023-06-26T14:47:15;3.72;;;2.25;;
80843;SDS011;70262;56.950;24.106;2023-06-26T14:49:41;6.05;;;2.25;;
80843;SDS011;70262;56.950;24.106;2023-06-26T14:52:07;6.22;;;2.80;;
80843;SDS011;70262;56.950;24.106;2023-06-26T14:54:32;6.43;;;2.72;;
80843;SDS011;70262;56.950;24.106;2023-06-26T14:56:59;7.40;;;2.88;;
80843;SDS011;70262;56.950;24.106;2023-06-26T14:59:25;3.95;;;3.30;;
80843;SDS011;70262;56.950;24.106;2023-06-26T15:01:51;4.45;;;3.00;;
80843;SDS011;70262;56.950;24.106;2023-06-26T15:04:18;3.20;;;2.22;;
80843;SDS011;70262;56.950;24.106;2023-06-26T15:06:43;5.97;;;2.72;;